CheckWX is a tool to help pilots better visualize weather data.  It is not intended as a substitute for an official pre-flight weather briefing.

16:08:32 UTC

KCWF METAR
Chennault International Airport
Lake Charles, Louisiana, USA
Current

6 hours ago

KCWF 261035Z 08004KT 7SM SCT024 21/21 A3008 RMK AO2 T02150211 PWINO
Observed
May-26 @ 10:35 UTC
Wind
  • 080° at 4 KTS
Visibility
7 SM
Flight Rules
VFR
Cloud Levels
  • Scattered at 2,400' AGL
Temperature
22°C / 72°F
Dewpoint
21°C / 70°F
Humidity
94%
Altimeter
30.08" Hg
Pressure
1018.62 hPa
Previous

6 hours ago

KCWF 261015Z 09011KT 5SM CLR 21/20 A3007 RMK AO2 T02100205 PWINO
Observed
May-26 @ 10:15 UTC
Wind
  • 090° at 11 KTS
Visibility
5 SM
Flight Rules
MVFR
Cloud Levels
  • Clear skies
Temperature
21°C / 70°F
Dewpoint
21°C / 70°F
Humidity
100%
Altimeter
30.07" Hg
Pressure
1018.32 hPa
Previous

6 hours ago

KCWF 260955Z 09009KT 5SM CLR 22/21 A3008 RMK AO2 T02180215 PWINO
Observed
May-26 @ 09:55 UTC
Wind
  • 090° at 9 KTS
Visibility
5 SM
Flight Rules
MVFR
Cloud Levels
  • Clear skies
Temperature
22°C / 72°F
Dewpoint
22°C / 72°F
Humidity
100%
Altimeter
30.08" Hg
Pressure
1018.62 hPa